Time;durP1;ratioP1;P1;durP2;ratioP2;P2;SDS_P1;SDS_P2;PMS_P1;PMS_P2;Temp;Humidity;BMP_temperature;BMP_pressure;BME280_temperature;BME280_humidity;BME280_pressure;Samples;Min_cycle;Max_cycle;Signal;HPM_P1;HPM_P2
2022/07/08 00:00:46;;;;;;;11.07;2.97;;;16.70;70.50;;;;;;2322242;58;21051;-76
2022/07/08 00:03:14;;;;;;;10.27;2.53;;;16.70;70.50;;;;;;2323145;58;21103;-74
2022/07/08 00:05:41;;;;;;;12.35;3.08;;;16.70;70.30;;;;;;2322228;58;21147;-74
2022/07/08 00:08:08;;;;;;;14.20;2.92;;;16.70;70.00;;;;;;2323210;58;21554;-74
2022/07/08 00:10:36;;;;;;;12.37;3.03;;;16.70;69.90;;;;;;2322360;58;21645;-74
2022/07/08 00:13:03;;;;;;;10.82;2.70;;;16.70;70.00;;;;;;2321574;58;21092;-74
2022/07/08 00:15:31;;;;;;;10.98;2.78;;;16.70;69.90;;;;;;2321912;58;21068;-73
2022/07/08 00:17:58;;;;;;;16.05;3.30;;;16.70;69.80;;;;;;2322237;58;21052;-74
2022/07/08 00:20:25;;;;;;;15.05;2.90;;;16.70;70.00;;;;;;2322547;58;21064;-74
2022/07/08 00:22:53;;;;;;;15.48;3.92;;;16.70;69.90;;;;;;2322063;58;21119;-75
2022/07/08 00:25:20;;;;;;;13.62;3.00;;;16.70;70.10;;;;;;2321939;58;21068;-74
2022/07/08 00:27:48;;;;;;;16.02;3.15;;;16.70;70.20;;;;;;2323218;58;21068;-74
2022/07/08 00:30:15;;;;;;;12.95;2.83;;;16.70;70.00;;;;;;2321922;58;21132;-74
2022/07/08 00:35:18;;;;;;;15.73;3.50;;;16.70;69.80;;;;;;2336083;57;27776;-73
2022/07/08 00:37:45;;;;;;;14.32;2.95;;;16.40;71.40;;;;;;2346748;57;21396;-73
2022/07/08 00:40:14;;;;;;;7.55;2.62;;;16.60;70.90;;;;;;2361226;56;21050;-74
2022/07/08 00:42:42;;;;;;;22.30;3.67;;;16.60;70.30;;;;;;2375056;56;21051;-73
2022/07/08 00:45:10;;;;;;;20.40;3.40;;;16.60;70.30;;;;;;2375255;56;21110;-73
2022/07/08 00:47:37;;;;;;;13.05;3.90;;;16.60;70.40;;;;;;2374144;56;21011;-74
2022/07/08 00:50:09;;;;;;;10.55;2.72;;;16.60;70.70;;;;;;2374306;56;21581;-73
2022/07/08 00:52:36;;;;;;;13.40;2.60;;;16.60;70.50;;;;;;2374617;56;21078;-74
2022/07/08 00:55:05;;;;;;;14.50;3.65;;;16.60;70.50;;;;;;2627589;52;21042;-73
2022/07/08 00:57:35;;;;;;;13.50;2.67;;;16.60;70.60;;;;;;2628259;52;21035;-74
2022/07/08 01:00:03;;;;;;;15.73;3.15;;;16.60;70.60;;;;;;2374767;56;21063;-73
2022/07/08 01:02:31;;;;;;;12.25;3.92;;;16.70;70.50;;;;;;2375410;56;21098;-73
2022/07/08 01:04:58;;;;;;;17.00;3.40;;;16.70;70.40;;;;;;2371643;56;21306;-74
2022/07/08 01:07:26;;;;;;;16.92;3.45;;;16.70;70.40;;;;;;2373593;56;21067;-74
2022/07/08 01:09:53;;;;;;;18.40;2.92;;;16.70;70.30;;;;;;2374741;56;21529;-74
2022/07/08 01:12:20;;;;;;;13.70;2.37;;;16.70;70.20;;;;;;2374399;56;21071;-74
2022/07/08 01:14:48;;;;;;;19.62;3.35;;;16.70;70.30;;;;;;2375173;56;21054;-74
2022/07/08 01:17:15;;;;;;;15.00;3.30;;;16.70;70.30;;;;;;2628157;52;21062;-74
2022/07/08 01:19:42;;;;;;;14.25;3.03;;;16.80;70.40;;;;;;2374513;56;21121;-73
2022/07/08 01:22:10;;;;;;;8.63;2.65;;;16.80;70.40;;;;;;2373883;56;21039;-73
2022/07/08 01:24:37;;;;;;;12.90;2.85;;;16.80;70.20;;;;;;2374448;56;21047;-73
2022/07/08 01:27:05;;;;;;;13.93;2.80;;;16.80;70.40;;;;;;2374487;56;21107;-74
2022/07/08 01:29:33;;;;;;;10.45;3.83;;;16.80;70.40;;;;;;2374135;56;21054;-75
2022/07/08 01:32:01;;;;;;;12.98;2.53;;;16.80;70.20;;;;;;2374842;56;21182;-73
2022/07/08 01:34:29;;;;;;;16.52;2.58;;;16.80;70.00;;;;;;2374671;56;21040;-74
2022/07/08 01:36:56;;;;;;;15.70;3.22;;;16.80;69.90;;;;;;2373507;56;21050;-74
2022/07/08 01:39:23;;;;;;;17.90;3.22;;;16.80;69.90;;;;;;2374638;56;21102;-74
2022/07/08 01:41:51;;;;;;;8.85;2.85;;;16.80;69.80;;;;;;2374455;56;21561;-74
2022/07/08 01:44:18;;;;;;;13.43;2.83;;;16.80;69.60;;;;;;2374734;56;21054;-74
2022/07/08 01:46:45;;;;;;;14.15;2.70;;;16.90;69.60;;;;;;2373518;56;21297;-74
2022/07/08 01:49:14;;;;;;;18.33;2.90;;;16.80;69.40;;;;;;2373119;56;21173;-74
2022/07/08 01:51:42;;;;;;;10.43;2.33;;;16.80;69.30;;;;;;2374040;56;21055;-74
2022/07/08 01:54:09;;;;;;;15.02;3.55;;;16.80;69.30;;;;;;2372956;56;21086;-73
2022/07/08 01:56:36;;;;;;;13.80;2.72;;;16.80;69.30;;;;;;2373401;56;21031;-74
2022/07/08 01:59:04;;;;;;;12.90;2.70;;;16.80;69.20;;;;;;2374023;56;21610;-73
2022/07/08 02:01:31;;;;;;;16.27;2.75;;;16.80;69.30;;;;;;2372719;56;21199;-74
2022/07/08 02:04:01;;;;;;;13.20;2.37;;;16.80;69.20;;;;;;2372684;56;21038;-73
2022/07/08 02:06:28;;;;;;;16.30;2.67;;;16.90;69.10;;;;;;2372940;56;21062;-74
2022/07/08 02:08:55;;;;;;;12.82;2.58;;;16.80;69.00;;;;;;2373648;56;21047;-74
2022/07/08 02:14:08;;;;;;;11.35;2.60;;;16.80;68.90;;;;;;2374291;56;21011;-73
2022/07/08 02:16:36;;;;;;;17.08;3.87;;;16.70;69.20;;;;;;2370453;56;21075;-74
2022/07/08 02:19:03;;;;;;;14.98;2.75;;;16.70;69.30;;;;;;2374312;56;21129;-74
2022/07/08 02:21:31;;;;;;;11.38;2.20;;;16.80;69.20;;;;;;2373178;56;21050;-73
2022/07/08 02:23:58;;;;;;;10.43;2.42;;;16.70;69.00;;;;;;2373932;56;21146;-74
2022/07/08 02:26:25;;;;;;;10.40;2.28;;;16.80;69.00;;;;;;2373450;56;21118;-74
2022/07/08 02:28:53;;;;;;;9.68;2.75;;;16.70;69.10;;;;;;2373155;56;21086;-75
2022/07/08 02:31:20;;;;;;;12.27;2.55;;;16.70;68.90;;;;;;2373095;56;21055;-74
2022/07/08 02:33:47;;;;;;;16.08;2.90;;;16.70;68.80;;;;;;2372614;56;21632;-74
2022/07/08 02:36:14;;;;;;;12.20;2.75;;;16.70;68.60;;;;;;2372202;56;21038;-74
2022/07/08 02:38:42;;;;;;;11.95;2.58;;;16.70;68.60;;;;;;2373107;56;21128;-74
2022/07/08 02:41:09;;;;;;;7.95;2.33;;;16.70;68.70;;;;;;2373452;56;21556;-75
2022/07/08 02:43:36;;;;;;;12.48;2.90;;;16.70;68.40;;;;;;2373415;56;21118;-75
2022/07/08 02:46:04;;;;;;;15.32;3.00;;;16.70;68.40;;;;;;2625469;52;21724;-74
2022/07/08 02:48:31;;;;;;;12.95;3.20;;;16.70;68.30;;;;;;2373519;56;21034;-74
2022/07/08 02:50:59;;;;;;;7.72;2.08;;;16.70;68.10;;;;;;2373208;56;21114;-74
2022/07/08 02:53:26;;;;;;;8.43;2.15;;;16.70;68.10;;;;;;2373759;56;21086;-75
2022/07/08 02:55:53;;;;;;;10.57;1.98;;;16.80;68.00;;;;;;2372239;56;21051;-74
2022/07/08 02:58:21;;;;;;;15.93;3.05;;;16.70;67.60;;;;;;2373216;56;21043;-75
2022/07/08 03:00:48;;;;;;;9.93;2.30;;;16.70;67.60;;;;;;2372990;56;21098;-73
2022/07/08 03:03:15;;;;;;;12.40;2.10;;;16.70;67.50;;;;;;2374082;56;21126;-73
2022/07/08 03:05:43;;;;;;;10.23;2.78;;;16.70;67.30;;;;;;2371899;56;21082;-75
2022/07/08 03:08:10;;;;;;;14.80;2.80;;;16.70;67.30;;;;;;2373644;56;21047;-74
2022/07/08 03:10:37;;;;;;;16.80;2.53;;;16.70;67.30;;;;;;2626740;52;21038;-75
2022/07/08 03:13:05;;;;;;;10.55;2.20;;;16.70;67.10;;;;;;2373254;56;21157;-74
2022/07/08 03:15:32;;;;;;;9.20;2.45;;;16.60;67.10;;;;;;2370412;56;21617;-73
2022/07/08 03:18:00;;;;;;;9.00;2.12;;;16.60;67.10;;;;;;2372641;56;21031;-74
2022/07/08 03:20:28;;;;;;;10.48;1.92;;;16.70;67.10;;;;;;2373038;56;21039;-75
2022/07/08 03:22:55;;;;;;;10.43;2.37;;;16.70;67.10;;;;;;2372860;56;21050;-73
2022/07/08 03:25:22;;;;;;;14.50;2.70;;;16.70;67.00;;;;;;2372972;56;21043;-75
2022/07/08 03:27:50;;;;;;;7.65;1.80;;;16.70;66.80;;;;;;2373538;56;21039;-75
2022/07/08 03:30:17;;;;;;;10.27;2.67;;;16.70;66.50;;;;;;2373083;56;21051;-74
2022/07/08 03:32:44;;;;;;;8.93;1.85;;;16.70;66.60;;;;;;2373340;56;21042;-75
2022/07/08 03:35:12;;;;;;;6.85;1.73;;;16.70;66.90;;;;;;2373553;56;21621;-74
2022/07/08 03:37:42;;;;;;;12.85;2.03;;;16.80;66.50;;;;;;2373302;56;21043;-72
2022/07/08 03:42:57;;;;;;;9.85;1.98;;;16.80;66.30;;;;;;2374174;56;21548;-74
2022/07/08 03:45:25;;;;;;;14.05;2.70;;;16.80;65.80;;;;;;2373061;56;21046;-74
2022/07/08 03:47:52;;;;;;;11.38;2.92;;;16.80;65.40;;;;;;2374177;56;21039;-74
2022/07/08 03:50:20;;;;;;;10.95;2.37;;;16.80;65.40;;;;;;2372730;56;21090;-74
2022/07/08 03:55:25;;;;;;;11.12;2.45;;;16.70;64.90;;;;;;2327897;57;22613;-74
2022/07/08 03:57:53;;;;;;;8.30;1.90;;;16.70;64.80;;;;;;2347333;57;21105;-74
2022/07/08 04:00:20;;;;;;;8.10;2.00;;;16.70;65.10;;;;;;2610065;52;21043;-74
2022/07/08 04:02:48;;;;;;;9.43;2.40;;;16.80;65.30;;;;;;2369822;56;21600;-75
2022/07/08 04:05:15;;;;;;;12.27;2.80;;;16.80;65.10;;;;;;2369905;56;21113;-73
2022/07/08 04:07:43;;;;;;;16.48;2.20;;;16.80;65.10;;;;;;2369235;56;21035;-74
2022/07/08 04:10:10;;;;;;;11.32;2.28;;;16.80;65.50;;;;;;2369919;56;21043;-74
2022/07/08 04:12:38;;;;;;;17.67;2.60;;;16.80;65.50;;;;;;2621725;52;21084;-71
2022/07/08 04:15:08;;;;;;;12.68;2.60;;;16.70;65.50;;;;;;2369820;56;21107;-73
2022/07/08 04:17:35;;;;;;;11.07;2.83;;;16.70;65.10;;;;;;2622800;52;21333;-74
2022/07/08 04:20:03;;;;;;;9.38;1.90;;;16.70;64.80;;;;;;2369904;56;21051;-74
2022/07/08 04:22:31;;;;;;;7.78;1.77;;;16.70;65.00;;;;;;2369796;56;21636;-75
2022/07/08 04:24:58;;;;;;;13.82;2.35;;;16.70;65.20;;;;;;2378025;54;21265;-75
2022/07/08 04:27:25;;;;;;;10.75;2.30;;;16.70;65.70;;;;;;2247707;60;21137;-75
2022/07/08 04:32:29;;;;;;;8.52;2.35;;;16.80;65.20;;;;;;2355557;57;22070;-73
2022/07/08 04:34:58;;;;;;;12.95;2.15;;;16.80;65.30;;;;;;2346650;57;21033;-74
2022/07/08 04:37:26;;;;;;;11.57;2.33;;;16.80;65.30;;;;;;2346810;57;21125;-74
2022/07/08 04:39:53;;;;;;;10.52;2.40;;;16.80;66.10;;;;;;2357662;56;21054;-74
2022/07/08 04:42:21;;;;;;;13.25;2.65;;;16.80;65.30;;;;;;2374858;56;21039;-75
2022/07/08 04:44:48;;;;;;;11.82;2.35;;;16.80;65.30;;;;;;2373985;56;21047;-75
2022/07/08 04:47:15;;;;;;;9.05;2.10;;;16.80;65.40;;;;;;2374442;56;21468;-74
2022/07/08 04:49:43;;;;;;;7.87;2.12;;;16.80;65.50;;;;;;2374942;56;21521;-73
2022/07/08 04:52:10;;;;;;;13.02;2.42;;;16.80;65.70;;;;;;2374476;56;21549;-74
2022/07/08 04:54:38;;;;;;;9.18;1.80;;;16.80;65.70;;;;;;2375201;56;21039;-74
2022/07/08 04:57:06;;;;;;;10.02;2.22;;;16.90;65.90;;;;;;2374064;56;21064;-74
2022/07/08 04:59:34;;;;;;;12.20;2.45;;;16.90;66.00;;;;;;2374349;56;21055;-74
2022/07/08 05:02:02;;;;;;;9.20;2.50;;;16.80;65.80;;;;;;2375152;56;21023;-75
2022/07/08 05:04:29;;;;;;;11.27;2.05;;;16.80;66.20;;;;;;2374528;56;21146;-74
2022/07/08 05:06:57;;;;;;;14.60;2.08;;;16.80;66.10;;;;;;2374604;56;21023;-74
2022/07/08 05:09:24;;;;;;;10.65;1.95;;;16.80;66.30;;;;;;2374465;56;21601;-74
2022/07/08 05:11:51;;;;;;;6.35;1.87;;;16.80;66.10;;;;;;2373829;56;21086;-73
2022/07/08 05:14:19;;;;;;;12.60;1.95;;;16.80;66.60;;;;;;2373940;56;21553;-75
2022/07/08 05:16:46;;;;;;;9.90;2.25;;;16.80;66.70;;;;;;2372546;56;21164;-74
2022/07/08 05:19:13;;;;;;;10.75;2.47;;;16.80;66.80;;;;;;2375131;56;21039;-74
2022/07/08 05:21:40;;;;;;;10.65;2.25;;;16.70;67.00;;;;;;2374636;56;21047;-74
2022/07/08 05:24:09;;;;;;;6.90;2.33;;;16.80;66.70;;;;;;2373142;56;21043;-74
2022/07/08 05:26:36;;;;;;;11.38;2.17;;;16.80;66.50;;;;;;2628435;52;21032;-74
2022/07/08 05:29:03;;;;;;;8.38;1.98;;;16.80;66.60;;;;;;2374797;56;21051;-73
2022/07/08 05:31:31;;;;;;;9.02;2.20;;;16.80;67.60;;;;;;2374942;56;21063;-73
2022/07/08 05:33:58;;;;;;;6.10;2.15;;;16.70;66.80;;;;;;2375497;56;21106;-75
2022/07/08 05:36:26;;;;;;;7.87;1.95;;;16.70;66.50;;;;;;2374238;56;21031;-74
2022/07/08 05:38:53;;;;;;;9.15;1.90;;;16.80;66.80;;;;;;2375456;56;21549;-74
2022/07/08 05:41:20;;;;;;;11.27;2.03;;;16.80;66.80;;;;;;2374244;56;21082;-75
2022/07/08 05:43:48;;;;;;;13.55;2.10;;;16.80;66.70;;;;;;2373612;56;21039;-74
2022/07/08 05:46:16;;;;;;;9.13;1.87;;;16.80;66.70;;;;;;2373625;56;21051;-75
2022/07/08 05:48:43;;;;;;;9.40;2.20;;;16.80;66.90;;;;;;2373855;56;21042;-75
2022/07/08 05:51:10;;;;;;;9.82;2.35;;;16.80;66.90;;;;;;2374110;56;21035;-74
2022/07/08 05:53:38;;;;;;;7.22;2.33;;;16.80;67.10;;;;;;2374011;56;21719;-74
2022/07/08 05:56:06;;;;;;;8.63;1.75;;;16.90;67.20;;;;;;2373691;56;21039;-75
2022/07/08 05:58:34;;;;;;;10.32;2.50;;;16.90;67.40;;;;;;2374024;56;21059;-75
2022/07/08 06:01:02;;;;;;;14.82;2.50;;;17.00;67.50;;;;;;2373435;56;21035;-74
2022/07/08 06:03:29;;;;;;;11.88;2.30;;;17.00;67.30;;;;;;2373735;56;21106;-74
2022/07/08 06:05:57;;;;;;;10.13;2.30;;;17.00;67.30;;;;;;2373691;56;21114;-73
2022/07/08 06:08:24;;;;;;;10.98;2.60;;;17.10;67.60;;;;;;2374329;56;21119;-75
2022/07/08 06:10:52;;;;;;;5.53;1.90;;;17.10;67.50;;;;;;2374094;56;21098;-74
2022/07/08 06:13:19;;;;;;;9.40;2.37;;;17.10;67.50;;;;;;2374230;56;21035;-74
2022/07/08 06:15:46;;;;;;;8.02;2.45;;;17.20;67.40;;;;;;2372838;56;21036;-74
2022/07/08 06:18:14;;;;;;;11.50;2.12;;;17.30;66.80;;;;;;2373240;56;21596;-74
2022/07/08 06:20:41;;;;;;;14.27;2.95;;;17.30;66.90;;;;;;2373762;56;21036;-74
2022/07/08 06:23:08;;;;;;;10.85;1.90;;;17.40;67.20;;;;;;2373678;56;21099;-74
2022/07/08 06:25:36;;;;;;;10.73;3.20;;;17.50;67.30;;;;;;2373581;56;21131;-74
2022/07/08 06:28:04;;;;;;;11.73;2.20;;;17.60;66.80;;;;;;2373893;56;21055;-74
2022/07/08 06:30:32;;;;;;;9.85;2.03;;;17.60;65.80;;;;;;2374257;56;21039;-75
2022/07/08 06:33:00;;;;;;;6.20;1.75;;;17.60;65.90;;;;;;2373310;56;21073;-75
2022/07/08 06:35:27;;;;;;;11.45;2.72;;;17.60;65.60;;;;;;2373559;56;21131;-74
2022/07/08 06:37:54;;;;;;;8.65;2.40;;;17.70;65.40;;;;;;2374123;56;21585;-75
2022/07/08 06:40:22;;;;;;;12.05;2.12;;;17.70;65.20;;;;;;2627083;52;21074;-74
2022/07/08 06:42:49;;;;;;;10.27;2.90;;;17.60;65.10;;;;;;2374281;56;21596;-74
2022/07/08 06:45:17;;;;;;;10.32;2.00;;;17.70;66.10;;;;;;2373831;56;21055;-74
2022/07/08 06:47:45;;;;;;;10.98;2.20;;;17.70;65.30;;;;;;2373796;56;21023;-74
2022/07/08 06:50:12;;;;;;;10.95;2.50;;;17.70;65.50;;;;;;2372893;56;21055;-74
2022/07/08 06:52:40;;;;;;;9.30;2.00;;;17.70;65.90;;;;;;2373801;56;21099;-74
2022/07/08 06:55:08;;;;;;;10.90;2.47;;;17.70;65.90;;;;;;2374060;56;21113;-75
2022/07/08 06:57:36;;;;;;;11.90;2.28;;;17.70;66.40;;;;;;2372969;56;21106;-75
2022/07/08 07:00:04;;;;;;;7.90;2.42;;;17.70;65.90;;;;;;2373893;56;21236;-74
2022/07/08 07:02:32;;;;;;;9.32;1.98;;;17.70;65.80;;;;;;2374416;56;21086;-74
2022/07/08 07:04:59;;;;;;;17.35;2.05;;;17.80;65.90;;;;;;2373300;56;21293;-75
2022/07/08 07:07:27;;;;;;;4.80;1.70;;;17.90;66.10;;;;;;2373403;56;21035;-74
2022/07/08 07:09:55;;;;;;;9.32;2.25;;;17.90;65.50;;;;;;2374274;56;21047;-75
2022/07/08 07:12:22;;;;;;;10.65;2.40;;;18.00;65.70;;;;;;2373294;56;21762;-74
2022/07/08 07:14:50;;;;;;;5.80;1.87;;;18.00;65.60;;;;;;2371745;56;21673;-74
2022/07/08 07:17:18;;;;;;;5.53;1.73;;;18.20;65.40;;;;;;2371962;56;22228;-75
2022/07/08 07:19:45;;;;;;;9.73;2.08;;;18.30;64.70;;;;;;2373140;56;21197;-75
2022/07/08 07:22:13;;;;;;;10.60;2.22;;;18.30;64.70;;;;;;2625887;52;21592;-74
2022/07/08 07:24:40;;;;;;;10.43;2.12;;;18.30;64.90;;;;;;2626023;52;21043;-74
2022/07/08 07:27:08;;;;;;;10.32;2.53;;;18.30;65.10;;;;;;2373654;56;21711;-74
2022/07/08 07:29:36;;;;;;;7.07;1.95;;;18.40;65.40;;;;;;2372688;56;21102;-75
2022/07/08 07:32:04;;;;;;;13.43;3.00;;;18.30;65.20;;;;;;2373724;56;21051;-74
2022/07/08 07:37:07;;;;;;;8.73;2.20;;;18.20;65.70;;;;;;2335915;57;27741;-74
2022/07/08 07:39:35;;;;;;;6.50;1.87;;;18.30;66.50;;;;;;2353812;56;21052;-74
2022/07/08 07:42:02;;;;;;;5.70;2.00;;;18.40;66.10;;;;;;2375231;56;21537;-74
2022/07/08 07:44:30;;;;;;;10.05;2.62;;;18.40;65.90;;;;;;2374556;56;21780;-74
2022/07/08 07:46:57;;;;;;;6.95;2.58;;;18.50;66.00;;;;;;2373663;56;21036;-74
2022/07/08 07:49:24;;;;;;;6.47;1.90;;;18.50;65.70;;;;;;2373609;56;21624;-74
2022/07/08 07:51:52;;;;;;;4.93;1.65;;;18.50;65.70;;;;;;2374152;56;21055;-74
2022/07/08 07:54:19;;;;;;;8.27;2.15;;;18.60;65.70;;;;;;2373417;56;21030;-74
2022/07/08 07:56:46;;;;;;;6.22;1.85;;;18.60;65.30;;;;;;2371033;56;21106;-74
2022/07/08 07:59:14;;;;;;;8.18;2.30;;;18.70;65.20;;;;;;2374197;56;21102;-74
2022/07/08 08:01:41;;;;;;;8.25;1.92;;;18.70;65.20;;;;;;2626304;52;21159;-74
2022/07/08 08:04:08;;;;;;;8.00;1.95;;;18.70;65.50;;;;;;2373035;56;21126;-74
2022/07/08 08:06:36;;;;;;;8.82;2.42;;;18.70;66.10;;;;;;2373152;56;21118;-74
2022/07/08 08:09:04;;;;;;;9.48;2.12;;;18.70;66.40;;;;;;2374060;56;21051;-74
2022/07/08 08:11:32;;;;;;;6.43;1.77;;;18.70;66.50;;;;;;2373953;56;21050;-74
2022/07/08 08:13:59;;;;;;;8.65;2.05;;;18.70;66.50;;;;;;2371886;56;21549;-74
2022/07/08 08:16:26;;;;;;;6.43;2.15;;;18.70;66.80;;;;;;2372271;56;21059;-74
2022/07/08 08:18:54;;;;;;;6.12;1.98;;;18.70;68.50;;;;;;2372381;56;21173;-74
2022/07/08 08:21:21;;;;;;;12.00;2.65;;;18.60;68.70;;;;;;2373458;56;21638;-73
2022/07/08 08:23:48;;;;;;;9.30;2.33;;;18.60;69.20;;;;;;2373581;56;21604;-73
2022/07/08 08:26:16;;;;;;;5.25;2.15;;;18.60;69.50;;;;;;2373017;56;21101;-73
2022/07/08 08:28:44;;;;;;;7.15;2.00;;;18.50;69.80;;;;;;2627272;52;21047;-74
2022/07/08 08:31:11;;;;;;;7.35;2.17;;;18.50;70.60;;;;;;2375149;56;21106;-73
2022/07/08 08:33:38;;;;;;;6.93;2.55;;;18.50;70.80;;;;;;2374497;56;21039;-74
2022/07/08 08:36:07;;;;;;;6.22;2.28;;;18.50;71.20;;;;;;2374250;56;21086;-74
2022/07/08 08:38:35;;;;;;;7.03;2.37;;;18.50;71.30;;;;;;2375470;56;21043;-73
2022/07/08 08:41:02;;;;;;;7.15;2.30;;;18.50;71.30;;;;;;2373954;56;21589;-73
2022/07/08 08:43:30;;;;;;;10.43;3.17;;;18.50;71.80;;;;;;2375138;56;21097;-73
2022/07/08 08:45:57;;;;;;;7.93;2.47;;;18.50;72.40;;;;;;2374764;56;21670;-73
2022/07/08 08:48:26;;;;;;;6.93;2.80;;;18.50;72.90;;;;;;2374306;56;21545;-73
2022/07/08 08:50:55;;;;;;;8.70;2.70;;;18.60;73.00;;;;;;2373645;56;21050;-74
2022/07/08 08:53:27;;;;;;;9.98;2.65;;;18.60;72.70;;;;;;2373598;56;21122;-73
2022/07/08 08:55:56;;;;;;;8.48;2.80;;;18.70;72.70;;;;;;2373612;56;21110;-74
2022/07/08 08:58:24;;;;;;;10.95;2.25;;;18.70;72.70;;;;;;2627675;52;21388;-73
2022/07/08 09:00:52;;;;;;;7.15;2.40;;;18.70;73.30;;;;;;2374048;56;21039;-73
2022/07/08 09:03:19;;;;;;;9.43;2.10;;;18.70;73.10;;;;;;2374308;56;21122;-73
2022/07/08 09:05:48;;;;;;;5.85;2.08;;;18.70;73.20;;;;;;2373125;56;21553;-73
2022/07/08 09:08:15;;;;;;;8.50;2.00;;;18.80;73.40;;;;;;2626627;52;21071;-73
2022/07/08 09:10:43;;;;;;;7.97;2.35;;;18.70;73.20;;;;;;2372044;56;21118;-74
2022/07/08 09:13:11;;;;;;;7.47;2.30;;;18.80;73.50;;;;;;2373928;56;21043;-73
2022/07/08 09:15:40;;;;;;;5.35;1.55;;;18.80;73.60;;;;;;2373582;56;21023;-74
2022/07/08 09:18:09;;;;;;;4.70;2.33;;;18.90;74.00;;;;;;2374006;56;21105;-74
2022/07/08 09:20:44;;;;;;;4.93;1.80;;;18.90;74.20;;;;;;2374015;56;21082;-74
2022/07/08 09:23:14;;;;;;;6.05;1.75;;;18.90;73.80;;;;;;2374168;56;21056;-74
2022/07/08 09:25:42;;;;;;;2.92;1.35;;;19.00;74.00;;;;;;2372858;56;21368;-73
2022/07/08 09:28:09;;;;;;;2.95;1.50;;;19.10;74.50;;;;;;2373841;56;21601;-73
2022/07/08 09:30:39;;;;;;;5.55;1.45;;;19.10;74.20;;;;;;2373863;56;21617;-74
2022/07/08 09:33:06;;;;;;;3.58;1.35;;;19.30;74.30;;;;;;2374061;56;21054;-74
2022/07/08 09:35:36;;;;;;;4.25;1.23;;;19.40;74.90;;;;;;2373331;56;21371;-74
2022/07/08 09:38:05;;;;;;;2.92;1.23;;;19.40;74.50;;;;;;2374022;56;21094;-74
2022/07/08 09:40:33;;;;;;;6.80;1.45;;;19.50;73.70;;;;;;2373557;56;21528;-74
2022/07/08 09:43:12;;;;;;;3.33;1.00;;;19.60;73.30;;;;;;2374099;56;21122;-74
2022/07/08 09:45:40;;;;;;;1.25;1.00;;;19.60;72.60;;;;;;2627033;52;21520;-74
2022/07/08 09:48:09;;;;;;;2.60;0.93;;;19.60;73.20;;;;;;2374406;56;21054;-74
2022/07/08 09:50:38;;;;;;;2.00;1.20;;;19.70;72.90;;;;;;2373675;56;21638;-73
2022/07/08 09:53:17;;;;;;;2.47;1.00;;;19.80;72.70;;;;;;2373647;56;21063;-74
2022/07/08 09:55:46;;;;;;;3.08;0.98;;;19.80;72.20;;;;;;2371238;56;21063;-74
2022/07/08 09:58:14;;;;;;;1.65;1.02;;;19.90;72.20;;;;;;2371456;56;21047;-74
2022/07/08 10:00:43;;;;;;;5.18;0.95;;;19.90;71.60;;;;;;2372950;56;21742;-74
2022/07/08 10:03:10;;;;;;;3.47;1.00;;;19.90;71.80;;;;;;2373327;56;21521;-74
2022/07/08 10:05:38;;;;;;;2.20;1.00;;;19.90;71.70;;;;;;2372916;56;21023;-74
2022/07/08 10:08:07;;;;;;;1.10;0.90;;;19.90;72.10;;;;;;2372934;56;21073;-74
2022/07/08 10:10:34;;;;;;;1.62;1.10;;;19.90;72.70;;;;;;2372827;56;21026;-74
2022/07/08 10:13:03;;;;;;;0.95;0.70;;;19.90;72.40;;;;;;2372875;56;21043;-73
2022/07/08 10:15:32;;;;;;;2.53;0.82;;;20.00;72.70;;;;;;2373499;56;21106;-74
2022/07/08 10:18:05;;;;;;;1.10;0.70;;;20.00;72.30;;;;;;2627640;52;21035;-74
2022/07/08 10:20:36;;;;;;;0.77;0.70;;;20.00;71.90;;;;;;2374510;56;21047;-74
2022/07/08 10:23:08;;;;;;;1.27;1.12;;;20.00;71.60;;;;;;2373920;56;21166;-74
2022/07/08 10:25:55;;;;;;;2.85;0.70;;;20.00;72.00;;;;;;2373105;56;21047;-74
2022/07/08 10:28:35;;;;;;;2.80;0.80;;;20.00;72.30;;;;;;2143117;63;21156;-74
2022/07/08 10:31:02;;;;;;;1.08;0.70;;;20.00;72.20;;;;;;2141481;63;21147;-74
2022/07/08 10:33:30;;;;;;;1.42;0.77;;;20.00;72.50;;;;;;2173656;59;21596;-74
2022/07/08 10:36:04;;;;;;;0.70;0.70;;;19.90;72.80;;;;;;2142838;63;21105;-76
2022/07/08 10:38:35;;;;;;;1.85;0.57;;;19.90;73.40;;;;;;2143043;63;21656;-75
2022/07/08 10:41:05;;;;;;;1.67;0.77;;;19.80;72.50;;;;;;2191686;59;21113;-73
2022/07/08 10:43:32;;;;;;;1.02;0.60;;;19.80;73.20;;;;;;2142720;63;21679;-75
2022/07/08 10:46:02;;;;;;;0.80;0.80;;;19.80;73.30;;;;;;2141909;63;21443;-75
2022/07/08 10:48:45;;;;;;;0.75;0.73;;;19.70;73.50;;;;;;2142638;63;21424;-75
2022/07/08 10:51:50;;;;;;;0.67;0.60;;;19.70;73.80;;;;;;2251965;59;21094;-76
2022/07/08 10:57:28;;;;;;;2.87;0.80;;;19.90;74.20;;;;;;2354334;57;22141;-74
2022/07/08 11:00:05;;;;;;;1.50;0.80;;;20.00;74.10;;;;;;2355930;56;21074;-74
2022/07/08 11:02:38;;;;;;;1.92;0.70;;;20.00;74.30;;;;;;2373836;56;21091;-74
2022/07/08 11:05:06;;;;;;;1.17;0.80;;;20.20;74.20;;;;;;2373839;56;21031;-75
2022/07/08 11:07:34;;;;;;;0.85;0.77;;;20.30;73.90;;;;;;2512739;52;21118;-74
2022/07/08 11:10:06;;;;;;;0.88;0.82;;;20.40;73.20;;;;;;2373865;56;21035;-76
2022/07/08 11:12:35;;;;;;;2.80;1.25;;;20.50;72.30;;;;;;2373878;56;21122;-75
2022/07/08 11:15:06;;;;;;;1.00;0.80;;;20.60;72.10;;;;;;2372305;54;21695;-75
2022/07/08 11:17:35;;;;;;;2.72;1.02;;;20.60;71.60;;;;;;2373631;56;21054;-75
2022/07/08 11:20:07;;;;;;;3.85;0.90;;;20.70;69.70;;;;;;2373998;56;21115;-75
2022/07/08 11:22:37;;;;;;;1.17;0.82;;;20.70;69.50;;;;;;2374049;56;21680;-76
2022/07/08 11:25:08;;;;;;;2.37;0.80;;;20.80;69.50;;;;;;2373458;56;21392;-75
2022/07/08 11:27:35;;;;;;;2.20;1.00;;;21.00;70.00;;;;;;2373227;56;21039;-76
2022/07/08 11:30:07;;;;;;;3.25;0.90;;;21.10;69.90;;;;;;2373620;56;21119;-77
2022/07/08 11:32:34;;;;;;;3.70;0.90;;;21.20;68.10;;;;;;2373906;56;21307;-77
2022/07/08 11:35:02;;;;;;;2.83;0.90;;;21.20;67.50;;;;;;2379086;52;21051;-76
2022/07/08 11:37:32;;;;;;;1.50;0.82;;;21.30;68.70;;;;;;2373645;56;21102;-77
2022/07/08 11:40:00;;;;;;;2.87;0.80;;;21.40;67.80;;;;;;2387718;52;21051;-76
2022/07/08 11:42:27;;;;;;;2.97;0.90;;;21.60;67.40;;;;;;2374204;56;21059;-77
2022/07/08 11:47:31;;;;;;;4.05;1.00;;;21.50;65.40;;;;;;2357076;53;22086;-76
2022/07/08 11:49:59;;;;;;;1.98;0.90;;;21.60;66.10;;;;;;2356938;56;21047;-78
2022/07/08 11:52:28;;;;;;;1.95;0.90;;;21.60;66.50;;;;;;2372786;56;21094;-75
2022/07/08 11:54:57;;;;;;;1.87;0.80;;;21.70;66.10;;;;;;2372265;56;21118;-74
2022/07/08 11:57:25;;;;;;;2.00;0.80;;;21.90;64.80;;;;;;2476026;52;21599;-74
2022/07/08 11:59:52;;;;;;;4.75;1.02;;;22.00;64.40;;;;;;2527890;52;21043;-74
2022/07/08 12:02:22;;;;;;;3.90;0.70;;;22.00;63.40;;;;;;2373472;56;21087;-74
2022/07/08 12:04:51;;;;;;;3.08;0.90;;;22.00;63.50;;;;;;2373402;56;21027;-75
2022/07/08 12:10:02;;;;;;;2.12;0.80;;;22.00;64.60;;;;;;2342592;57;22155;-77
2022/07/08 12:12:31;;;;;;;2.37;0.82;;;22.20;63.70;;;;;;2345366;57;21532;-78
2022/07/08 12:15:10;;;;;;;3.35;1.17;;;22.20;63.60;;;;;;2345301;57;21168;-77
2022/07/08 12:17:37;;;;;;;2.15;0.90;;;22.20;63.80;;;;;;2344843;57;21128;-75
2022/07/08 12:20:06;;;;;;;1.27;0.80;;;22.30;62.70;;;;;;2345620;53;21050;-76
2022/07/08 12:22:46;;;;;;;2.35;1.08;;;22.30;62.00;;;;;;2345266;57;21038;-76
2022/07/08 12:25:15;;;;;;;4.22;1.00;;;22.50;62.60;;;;;;2467341;53;21659;-74
2022/07/08 12:27:43;;;;;;;2.97;0.88;;;22.70;60.40;;;;;;2343336;57;21584;-74
2022/07/08 12:30:11;;;;;;;1.67;0.98;;;22.80;59.60;;;;;;2345169;57;21046;-75
2022/07/08 12:32:40;;;;;;;2.53;0.70;;;22.80;59.40;;;;;;2345001;57;21106;-74
2022/07/08 12:35:09;;;;;;;6.85;1.20;;;22.90;58.60;;;;;;2343837;57;21062;-73
2022/07/08 12:37:38;;;;;;;4.20;1.10;;;23.10;58.80;;;;;;2344182;57;21196;-74
2022/07/08 12:40:16;;;;;;;2.87;0.90;;;23.20;59.00;;;;;;2370138;53;22140;-74
2022/07/08 12:42:59;;;;;;;3.78;0.90;;;23.30;58.10;;;;;;2345061;57;22198;-77
2022/07/08 12:45:28;;;;;;;1.58;0.90;;;23.20;56.60;;;;;;2343900;57;21049;-77
2022/07/08 12:47:55;;;;;;;3.97;1.20;;;23.20;55.90;;;;;;2344978;57;21672;-76
2022/07/08 12:50:23;;;;;;;1.95;0.95;;;23.20;56.00;;;;;;2343441;57;21535;-76
2022/07/08 12:52:51;;;;;;;5.07;1.30;;;23.10;56.70;;;;;;2343464;57;21121;-76
2022/07/08 12:55:18;;;;;;;4.53;1.42;;;23.20;56.40;;;;;;2344770;57;21049;-76
2022/07/08 12:57:46;;;;;;;2.28;1.12;;;23.30;56.30;;;;;;2344935;57;21030;-77
2022/07/08 13:00:14;;;;;;;4.32;1.40;;;23.20;55.60;;;;;;2343752;57;21057;-76
2022/07/08 13:02:42;;;;;;;4.93;1.58;;;23.10;55.70;;;;;;2344719;57;21125;-76
2022/07/08 13:05:10;;;;;;;3.62;1.58;;;23.10;54.90;;;;;;2343959;57;21061;-75
2022/07/08 13:07:37;;;;;;;4.03;1.10;;;23.10;55.10;;;;;;2343748;57;21870;-77
2022/07/08 13:10:07;;;;;;;4.57;1.37;;;23.10;56.10;;;;;;2344701;57;21049;-75
2022/07/08 13:12:34;;;;;;;5.70;1.62;;;23.20;55.70;;;;;;2344508;57;21113;-76